sensor_id;sensor_type;location;lat;lon;timestamp;pressure;altitude;pressure_sealevel;temperature;humidity
21086;BME280;72320;50.082;20.000;2023-12-22T00:01:14;96005.64;;;7.15;100.00
21086;BME280;72320;50.082;20.000;2023-12-22T00:03:43;96015.16;;;7.20;100.00
21086;BME280;72320;50.082;20.000;2023-12-22T00:06:12;96013.63;;;7.21;100.00
21086;BME280;72320;50.082;20.000;2023-12-22T00:08:39;96008.01;;;7.26;100.00
21086;BME280;72320;50.082;20.000;2023-12-22T00:11:05;96015.25;;;7.29;100.00
21086;BME280;72320;50.082;20.000;2023-12-22T00:13:31;96024.91;;;7.31;100.00
21086;BME280;72320;50.082;20.000;2023-12-22T00:15:59;96008.25;;;7.24;100.00
21086;BME280;72320;50.082;20.000;2023-12-22T00:18:26;96033.35;;;7.22;100.00
21086;BME280;72320;50.082;20.000;2023-12-22T00:20:53;96036.64;;;7.23;100.00
21086;BME280;72320;50.082;20.000;2023-12-22T00:23:19;96042.54;;;7.17;100.00
21086;BME280;72320;50.082;20.000;2023-12-22T00:25:45;96043.08;;;7.17;100.00
21086;BME280;72320;50.082;20.000;2023-12-22T00:28:12;96034.32;;;7.15;100.00
21086;BME280;72320;50.082;20.000;2023-12-22T00:30:38;96028.64;;;7.09;100.00
21086;BME280;72320;50.082;20.000;2023-12-22T00:33:04;96026.13;;;7.08;100.00
21086;BME280;72320;50.082;20.000;2023-12-22T00:35:30;96039.69;;;7.04;100.00
21086;BME280;72320;50.082;20.000;2023-12-22T00:37:57;96040.05;;;7.04;100.00
21086;BME280;72320;50.082;20.000;2023-12-22T00:40:22;96038.05;;;6.98;100.00
21086;BME280;72320;50.082;20.000;2023-12-22T00:42:49;96043.29;;;7.00;100.00
21086;BME280;72320;50.082;20.000;2023-12-22T00:45:15;96040.10;;;7.02;100.00
21086;BME280;72320;50.082;20.000;2023-12-22T00:47:40;96043.73;;;7.03;100.00
21086;BME280;72320;50.082;20.000;2023-12-22T00:50:07;96050.33;;;7.04;100.00
21086;BME280;72320;50.082;20.000;2023-12-22T00:52:33;96070.56;;;7.05;100.00
21086;BME280;72320;50.082;20.000;2023-12-22T00:54:59;96082.89;;;7.08;100.00
21086;BME280;72320;50.082;20.000;2023-12-22T00:57:25;96078.61;;;7.07;100.00
21086;BME280;72320;50.082;20.000;2023-12-22T00:59:51;96077.02;;;6.85;100.00
21086;BME280;72320;50.082;20.000;2023-12-22T01:02:18;96070.34;;;6.60;100.00
21086;BME280;72320;50.082;20.000;2023-12-22T01:04:44;96070.86;;;6.45;100.00
21086;BME280;72320;50.082;20.000;2023-12-22T01:07:11;96063.32;;;6.38;100.00
21086;BME280;72320;50.082;20.000;2023-12-22T01:09:37;96068.00;;;6.28;100.00
21086;BME280;72320;50.082;20.000;2023-12-22T01:12:04;96073.09;;;6.20;100.00
21086;BME280;72320;50.082;20.000;2023-12-22T01:14:32;96079.45;;;6.21;100.00
21086;BME280;72320;50.082;20.000;2023-12-22T01:16:59;96079.73;;;6.16;100.00
21086;BME280;72320;50.082;20.000;2023-12-22T01:19:26;96080.80;;;6.14;100.00
21086;BME280;72320;50.082;20.000;2023-12-22T01:21:53;96081.64;;;6.08;100.00
21086;BME280;72320;50.082;20.000;2023-12-22T01:24:19;96085.73;;;6.09;100.00
21086;BME280;72320;50.082;20.000;2023-12-22T01:26:45;96104.09;;;6.08;100.00
21086;BME280;72320;50.082;20.000;2023-12-22T01:29:11;96102.75;;;6.03;100.00
21086;BME280;72320;50.082;20.000;2023-12-22T01:31:37;96099.71;;;6.03;100.00
21086;BME280;72320;50.082;20.000;2023-12-22T01:34:03;96097.46;;;5.97;100.00
21086;BME280;72320;50.082;20.000;2023-12-22T01:36:29;96105.46;;;5.89;100.00
21086;BME280;72320;50.082;20.000;2023-12-22T01:38:55;96103.20;;;5.90;100.00
21086;BME280;72320;50.082;20.000;2023-12-22T01:41:20;96101.98;;;5.97;100.00
21086;BME280;72320;50.082;20.000;2023-12-22T01:43:47;96104.88;;;5.95;100.00
21086;BME280;72320;50.082;20.000;2023-12-22T01:46:13;96116.52;;;5.94;100.00
21086;BME280;72320;50.082;20.000;2023-12-22T01:48:39;96113.02;;;5.90;100.00
21086;BME280;72320;50.082;20.000;2023-12-22T01:51:07;96114.50;;;5.88;100.00
21086;BME280;72320;50.082;20.000;2023-12-22T01:53:34;96115.55;;;5.83;100.00
21086;BME280;72320;50.082;20.000;2023-12-22T01:56:02;96110.88;;;5.80;100.00
21086;BME280;72320;50.082;20.000;2023-12-22T01:58:30;96117.15;;;5.78;100.00
21086;BME280;72320;50.082;20.000;2023-12-22T02:00:58;96120.29;;;5.79;100.00
21086;BME280;72320;50.082;20.000;2023-12-22T02:03:25;96119.66;;;5.82;100.00
21086;BME280;72320;50.082;20.000;2023-12-22T02:05:52;96118.13;;;5.85;100.00
21086;BME280;72320;50.082;20.000;2023-12-22T02:08:18;96122.16;;;5.87;100.00
21086;BME280;72320;50.082;20.000;2023-12-22T02:10:44;96116.19;;;5.89;100.00
21086;BME280;72320;50.082;20.000;2023-12-22T02:13:11;96120.18;;;5.89;100.00
21086;BME280;72320;50.082;20.000;2023-12-22T02:15:38;96118.21;;;5.95;100.00
21086;BME280;72320;50.082;20.000;2023-12-22T02:18:10;96117.38;;;5.98;100.00
21086;BME280;72320;50.082;20.000;2023-12-22T02:20:38;96130.70;;;5.98;100.00
21086;BME280;72320;50.082;20.000;2023-12-22T02:23:08;96122.48;;;6.01;100.00
21086;BME280;72320;50.082;20.000;2023-12-22T02:25:34;96119.32;;;6.07;100.00
21086;BME280;72320;50.082;20.000;2023-12-22T02:28:07;96127.61;;;6.17;100.00
21086;BME280;72320;50.082;20.000;2023-12-22T02:30:57;96113.01;;;6.22;100.00
21086;BME280;72320;50.082;20.000;2023-12-22T02:33:29;96123.75;;;6.20;100.00
21086;BME280;72320;50.082;20.000;2023-12-22T02:36:03;96110.05;;;6.20;100.00
21086;BME280;72320;50.082;20.000;2023-12-22T02:38:33;96124.39;;;6.10;100.00
21086;BME280;72320;50.082;20.000;2023-12-22T02:41:00;96121.58;;;6.05;100.00
21086;BME280;72320;50.082;20.000;2023-12-22T02:43:28;96123.25;;;5.97;100.00
21086;BME280;72320;50.082;20.000;2023-12-22T02:45:54;96113.59;;;5.87;100.00
21086;BME280;72320;50.082;20.000;2023-12-22T02:48:20;96108.53;;;5.77;100.00
21086;BME280;72320;50.082;20.000;2023-12-22T02:50:46;96113.80;;;5.70;100.00
21086;BME280;72320;50.082;20.000;2023-12-22T02:53:12;96119.58;;;5.74;100.00
21086;BME280;72320;50.082;20.000;2023-12-22T02:55:38;96119.69;;;5.71;100.00
21086;BME280;72320;50.082;20.000;2023-12-22T02:58:04;96123.17;;;5.71;100.00
21086;BME280;72320;50.082;20.000;2023-12-22T03:00:30;96126.95;;;5.70;100.00
21086;BME280;72320;50.082;20.000;2023-12-22T03:02:56;96121.30;;;5.67;100.00
21086;BME280;72320;50.082;20.000;2023-12-22T03:05:22;96113.55;;;5.66;100.00
21086;BME280;72320;50.082;20.000;2023-12-22T03:07:47;96125.35;;;5.63;100.00
21086;BME280;72320;50.082;20.000;2023-12-22T03:10:13;96119.63;;;5.71;100.00
21086;BME280;72320;50.082;20.000;2023-12-22T03:12:39;96118.45;;;5.74;100.00
21086;BME280;72320;50.082;20.000;2023-12-22T03:15:06;96110.38;;;5.67;100.00
21086;BME280;72320;50.082;20.000;2023-12-22T03:17:32;96115.25;;;5.57;100.00
21086;BME280;72320;50.082;20.000;2023-12-22T03:19:58;96109.61;;;5.54;100.00
21086;BME280;72320;50.082;20.000;2023-12-22T03:22:24;96105.37;;;5.47;100.00
21086;BME280;72320;50.082;20.000;2023-12-22T03:24:49;96107.77;;;5.37;100.00
21086;BME280;72320;50.082;20.000;2023-12-22T03:27:16;96104.95;;;5.39;100.00
21086;BME280;72320;50.082;20.000;2023-12-22T03:29:44;96116.79;;;5.38;100.00
21086;BME280;72320;50.082;20.000;2023-12-22T03:32:10;96119.11;;;5.34;100.00
21086;BME280;72320;50.082;20.000;2023-12-22T03:34:36;96134.54;;;5.41;100.00
21086;BME280;72320;50.082;20.000;2023-12-22T03:37:03;96130.36;;;5.50;100.00
21086;BME280;72320;50.082;20.000;2023-12-22T03:39:29;96138.98;;;5.48;100.00
21086;BME280;72320;50.082;20.000;2023-12-22T03:41:55;96142.84;;;5.49;100.00
21086;BME280;72320;50.082;20.000;2023-12-22T03:44:21;96139.08;;;5.50;100.00
21086;BME280;72320;50.082;20.000;2023-12-22T03:46:47;96127.86;;;5.41;100.00
21086;BME280;72320;50.082;20.000;2023-12-22T03:49:13;96126.22;;;5.35;100.00
21086;BME280;72320;50.082;20.000;2023-12-22T03:51:39;96124.68;;;5.29;100.00
21086;BME280;72320;50.082;20.000;2023-12-22T03:54:07;96133.82;;;5.25;100.00
21086;BME280;72320;50.082;20.000;2023-12-22T03:56:33;96129.68;;;5.26;100.00
21086;BME280;72320;50.082;20.000;2023-12-22T03:58:59;96130.76;;;5.28;100.00
21086;BME280;72320;50.082;20.000;2023-12-22T04:01:25;96138.20;;;5.23;99.86
21086;BME280;72320;50.082;20.000;2023-12-22T04:03:51;96144.64;;;5.33;99.71
21086;BME280;72320;50.082;20.000;2023-12-22T04:06:17;96146.89;;;5.37;99.52
21086;BME280;72320;50.082;20.000;2023-12-22T04:08:43;96125.59;;;5.38;98.24
21086;BME280;72320;50.082;20.000;2023-12-22T04:11:09;96145.66;;;5.49;96.18
21086;BME280;72320;50.082;20.000;2023-12-22T04:13:35;96141.83;;;5.47;95.79
21086;BME280;72320;50.082;20.000;2023-12-22T04:16:01;96126.70;;;5.44;94.35
21086;BME280;72320;50.082;20.000;2023-12-22T04:18:30;96140.54;;;5.34;91.66
21086;BME280;72320;50.082;20.000;2023-12-22T04:20:56;96137.66;;;5.34;89.11
21086;BME280;72320;50.082;20.000;2023-12-22T04:23:22;96134.98;;;5.37;83.53
21086;BME280;72320;50.082;20.000;2023-12-22T04:25:51;96143.15;;;5.44;82.06
21086;BME280;72320;50.082;20.000;2023-12-22T04:28:17;96146.74;;;5.45;82.26
21086;BME280;72320;50.082;20.000;2023-12-22T04:30:43;96150.66;;;5.52;81.96
21086;BME280;72320;50.082;20.000;2023-12-22T04:33:09;96169.70;;;5.58;81.81
21086;BME280;72320;50.082;20.000;2023-12-22T04:35:36;96172.02;;;5.63;81.91
21086;BME280;72320;50.082;20.000;2023-12-22T04:38:02;96160.38;;;5.71;82.26
21086;BME280;72320;50.082;20.000;2023-12-22T04:40:29;96166.51;;;5.69;82.92
21086;BME280;72320;50.082;20.000;2023-12-22T04:42:55;96168.11;;;5.62;83.64
21086;BME280;72320;50.082;20.000;2023-12-22T04:45:22;96167.52;;;5.62;84.74
21086;BME280;72320;50.082;20.000;2023-12-22T04:47:48;96165.41;;;5.64;85.51
21086;BME280;72320;50.082;20.000;2023-12-22T04:50:14;96161.34;;;5.70;85.52
21086;BME280;72320;50.082;20.000;2023-12-22T04:52:40;96163.83;;;5.68;85.45
21086;BME280;72320;50.082;20.000;2023-12-22T04:55:06;96154.45;;;5.69;86.08
21086;BME280;72320;50.082;20.000;2023-12-22T04:57:32;96146.75;;;5.74;86.52
21086;BME280;72320;50.082;20.000;2023-12-22T04:59:58;96158.91;;;5.70;87.16
21086;BME280;72320;50.082;20.000;2023-12-22T05:02:24;96145.31;;;5.74;87.97
21086;BME280;72320;50.082;20.000;2023-12-22T05:04:50;96143.17;;;5.71;89.15
21086;BME280;72320;50.082;20.000;2023-12-22T05:07:16;96156.50;;;5.67;91.07
21086;BME280;72320;50.082;20.000;2023-12-22T05:09:42;96165.02;;;5.68;92.49
21086;BME280;72320;50.082;20.000;2023-12-22T05:12:08;96162.88;;;5.67;93.29
21086;BME280;72320;50.082;20.000;2023-12-22T05:14:34;96169.76;;;5.68;94.45
21086;BME280;72320;50.082;20.000;2023-12-22T05:17:00;96176.60;;;5.72;95.14
21086;BME280;72320;50.082;20.000;2023-12-22T05:19:27;96177.36;;;5.76;96.56
21086;BME280;72320;50.082;20.000;2023-12-22T05:21:53;96191.36;;;5.68;98.94
21086;BME280;72320;50.082;20.000;2023-12-22T05:24:22;96211.66;;;5.36;100.00
21086;BME280;72320;50.082;20.000;2023-12-22T05:26:48;96229.66;;;4.92;100.00
21086;BME280;72320;50.082;20.000;2023-12-22T05:29:14;96265.45;;;4.46;100.00
21086;BME280;72320;50.082;20.000;2023-12-22T05:31:40;96275.23;;;3.71;100.00
21086;BME280;72320;50.082;20.000;2023-12-22T05:34:06;96270.25;;;2.97;100.00
21086;BME280;72320;50.082;20.000;2023-12-22T05:36:32;96271.91;;;2.32;100.00
21086;BME280;72320;50.082;20.000;2023-12-22T05:38:58;96270.17;;;1.99;100.00
21086;BME280;72320;50.082;20.000;2023-12-22T05:41:24;96273.21;;;1.82;100.00
21086;BME280;72320;50.082;20.000;2023-12-22T05:43:51;96277.09;;;1.71;100.00
21086;BME280;72320;50.082;20.000;2023-12-22T05:46:18;96279.83;;;1.65;100.00
21086;BME280;72320;50.082;20.000;2023-12-22T05:48:44;96289.70;;;1.64;100.00
21086;BME280;72320;50.082;20.000;2023-12-22T05:51:11;96292.82;;;1.62;100.00
21086;BME280;72320;50.082;20.000;2023-12-22T05:53:40;96299.39;;;1.58;100.00
21086;BME280;72320;50.082;20.000;2023-12-22T05:56:20;96302.02;;;1.58;100.00
21086;BME280;72320;50.082;20.000;2023-12-22T05:58:50;96309.44;;;1.55;100.00
21086;BME280;72320;50.082;20.000;2023-12-22T06:01:17;96305.39;;;1.57;100.00
21086;BME280;72320;50.082;20.000;2023-12-22T06:03:47;96298.86;;;1.56;100.00
21086;BME280;72320;50.082;20.000;2023-12-22T06:06:14;96299.41;;;1.58;100.00
21086;BME280;72320;50.082;20.000;2023-12-22T06:08:40;96298.42;;;1.60;100.00
21086;BME280;72320;50.082;20.000;2023-12-22T06:11:06;96299.45;;;1.60;100.00
21086;BME280;72320;50.082;20.000;2023-12-22T06:13:32;96294.53;;;1.60;100.00
21086;BME280;72320;50.082;20.000;2023-12-22T06:15:58;96301.14;;;1.56;100.00
21086;BME280;72320;50.082;20.000;2023-12-22T06:18:24;96306.26;;;1.55;100.00
21086;BME280;72320;50.082;20.000;2023-12-22T06:20:50;96310.41;;;1.58;100.00
21086;BME280;72320;50.082;20.000;2023-12-22T06:23:16;96314.64;;;1.59;100.00
21086;BME280;72320;50.082;20.000;2023-12-22T06:25:42;96318.20;;;1.60;100.00
21086;BME280;72320;50.082;20.000;2023-12-22T06:28:08;96324.77;;;1.63;100.00
21086;BME280;72320;50.082;20.000;2023-12-22T06:30:34;96325.71;;;1.65;100.00
21086;BME280;72320;50.082;20.000;2023-12-22T06:33:00;96322.67;;;1.68;100.00
21086;BME280;72320;50.082;20.000;2023-12-22T06:35:26;96318.69;;;1.70;100.00
21086;BME280;72320;50.082;20.000;2023-12-22T06:37:53;96327.34;;;1.73;100.00
21086;BME280;72320;50.082;20.000;2023-12-22T06:40:20;96333.43;;;1.73;100.00
21086;BME280;72320;50.082;20.000;2023-12-22T06:42:46;96344.45;;;1.77;100.00
21086;BME280;72320;50.082;20.000;2023-12-22T06:45:12;96343.87;;;1.80;100.00
21086;BME280;72320;50.082;20.000;2023-12-22T06:47:38;96352.15;;;1.81;100.00
21086;BME280;72320;50.082;20.000;2023-12-22T06:50:05;96354.48;;;1.84;100.00
21086;BME280;72320;50.082;20.000;2023-12-22T06:52:31;96363.73;;;1.84;100.00
21086;BME280;72320;50.082;20.000;2023-12-22T06:54:58;96365.31;;;1.86;100.00
21086;BME280;72320;50.082;20.000;2023-12-22T06:57:24;96371.33;;;1.87;100.00
21086;BME280;72320;50.082;20.000;2023-12-22T06:59:50;96371.83;;;1.90;100.00
21086;BME280;72320;50.082;20.000;2023-12-22T07:02:16;96376.58;;;1.92;100.00
21086;BME280;72320;50.082;20.000;2023-12-22T07:04:42;96381.77;;;1.90;100.00
21086;BME280;72320;50.082;20.000;2023-12-22T07:07:28;96374.85;;;1.83;100.00
21086;BME280;72320;50.082;20.000;2023-12-22T07:09:54;96374.63;;;1.83;100.00
21086;BME280;72320;50.082;20.000;2023-12-22T07:12:20;96369.38;;;1.86;100.00
21086;BME280;72320;50.082;20.000;2023-12-22T07:14:46;96369.81;;;1.84;100.00
21086;BME280;72320;50.082;20.000;2023-12-22T07:17:12;96371.20;;;1.83;100.00
21086;BME280;72320;50.082;20.000;2023-12-22T07:19:38;96376.73;;;1.87;100.00
21086;BME280;72320;50.082;20.000;2023-12-22T07:22:04;96376.54;;;1.88;100.00
21086;BME280;72320;50.082;20.000;2023-12-22T07:24:30;96382.42;;;1.93;100.00
21086;BME280;72320;50.082;20.000;2023-12-22T07:26:56;96380.89;;;1.99;100.00
21086;BME280;72320;50.082;20.000;2023-12-22T07:29:22;96390.99;;;2.03;100.00
21086;BME280;72320;50.082;20.000;2023-12-22T07:31:47;96392.30;;;2.07;100.00
21086;BME280;72320;50.082;20.000;2023-12-22T07:34:13;96403.61;;;2.09;100.00
21086;BME280;72320;50.082;20.000;2023-12-22T07:36:40;96402.52;;;2.09;100.00
21086;BME280;72320;50.082;20.000;2023-12-22T07:39:06;96398.66;;;2.08;100.00
21086;BME280;72320;50.082;20.000;2023-12-22T07:41:32;96400.03;;;2.10;100.00
21086;BME280;72320;50.082;20.000;2023-12-22T07:43:59;96409.27;;;2.15;100.00
21086;BME280;72320;50.082;20.000;2023-12-22T07:46:25;96411.05;;;2.16;100.00
21086;BME280;72320;50.082;20.000;2023-12-22T07:48:51;96416.53;;;2.22;100.00
21086;BME280;72320;50.082;20.000;2023-12-22T07:51:18;96420.95;;;2.30;100.00
21086;BME280;72320;50.082;20.000;2023-12-22T07:53:44;96424.12;;;2.38;100.00
21086;BME280;72320;50.082;20.000;2023-12-22T07:56:11;96428.79;;;2.51;100.00
21086;BME280;72320;50.082;20.000;2023-12-22T07:58:38;96428.77;;;2.63;100.00
21086;BME280;72320;50.082;20.000;2023-12-22T08:01:04;96424.38;;;2.63;100.00
21086;BME280;72320;50.082;20.000;2023-12-22T08:03:32;96429.21;;;2.68;100.00
21086;BME280;72320;50.082;20.000;2023-12-22T08:05:59;96432.48;;;2.81;100.00
21086;BME280;72320;50.082;20.000;2023-12-22T08:08:25;96419.98;;;2.89;100.00
21086;BME280;72320;50.082;20.000;2023-12-22T08:10:52;96413.27;;;2.94;100.00
21086;BME280;72320;50.082;20.000;2023-12-22T08:13:18;96411.00;;;2.92;100.00
21086;BME280;72320;50.082;20.000;2023-12-22T08:15:44;96410.05;;;2.86;100.00
21086;BME280;72320;50.082;20.000;2023-12-22T08:18:10;96403.70;;;2.89;100.00
21086;BME280;72320;50.082;20.000;2023-12-22T08:20:37;96409.90;;;2.90;100.00
21086;BME280;72320;50.082;20.000;2023-12-22T08:23:03;96407.58;;;2.93;100.00
21086;BME280;72320;50.082;20.000;2023-12-22T08:25:29;96409.74;;;2.94;100.00
21086;BME280;72320;50.082;20.000;2023-12-22T08:27:56;96408.73;;;2.94;100.00
21086;BME280;72320;50.082;20.000;2023-12-22T08:30:22;96414.66;;;2.94;100.00
21086;BME280;72320;50.082;20.000;2023-12-22T08:32:48;96415.05;;;2.95;100.00
21086;BME280;72320;50.082;20.000;2023-12-22T08:35:13;96409.39;;;3.00;100.00
21086;BME280;72320;50.082;20.000;2023-12-22T08:37:40;96405.27;;;3.08;100.00
21086;BME280;72320;50.082;20.000;2023-12-22T08:40:06;96410.26;;;3.13;100.00
21086;BME280;72320;50.082;20.000;2023-12-22T08:42:33;96404.70;;;3.15;100.00
21086;BME280;72320;50.082;20.000;2023-12-22T08:44:59;96401.30;;;3.28;100.00
21086;BME280;72320;50.082;20.000;2023-12-22T08:47:25;96400.77;;;3.44;100.00
21086;BME280;72320;50.082;20.000;2023-12-22T08:49:51;96404.99;;;3.56;100.00
21086;BME280;72320;50.082;20.000;2023-12-22T08:52:18;96400.61;;;3.67;100.00
21086;BME280;72320;50.082;20.000;2023-12-22T08:54:44;96393.56;;;3.76;100.00
21086;BME280;72320;50.082;20.000;2023-12-22T08:57:10;96399.55;;;3.81;100.00
21086;BME280;72320;50.082;20.000;2023-12-22T08:59:36;96391.78;;;3.78;100.00
21086;BME280;72320;50.082;20.000;2023-12-22T09:02:02;96388.38;;;3.75;100.00
21086;BME280;72320;50.082;20.000;2023-12-22T09:04:28;96389.80;;;3.73;100.00
21086;BME280;72320;50.082;20.000;2023-12-22T09:06:55;96393.14;;;3.76;100.00
21086;BME280;72320;50.082;20.000;2023-12-22T09:09:23;96388.95;;;3.76;100.00
21086;BME280;72320;50.082;20.000;2023-12-22T09:11:50;96397.08;;;3.85;100.00
21086;BME280;72320;50.082;20.000;2023-12-22T09:14:16;96399.83;;;3.98;100.00
21086;BME280;72320;50.082;20.000;2023-12-22T09:16:42;96403.69;;;4.01;100.00
21086;BME280;72320;50.082;20.000;2023-12-22T09:19:10;96398.20;;;3.99;100.00
21086;BME280;72320;50.082;20.000;2023-12-22T09:21:36;96395.13;;;3.90;100.00
21086;BME280;72320;50.082;20.000;2023-12-22T09:24:02;96411.45;;;3.81;100.00
21086;BME280;72320;50.082;20.000;2023-12-22T09:26:27;96421.52;;;3.74;100.00
21086;BME280;72320;50.082;20.000;2023-12-22T09:28:55;96423.83;;;3.53;100.00
21086;BME280;72320;50.082;20.000;2023-12-22T09:31:21;96417.03;;;3.24;100.00
21086;BME280;72320;50.082;20.000;2023-12-22T09:33:48;96413.77;;;3.13;100.00
21086;BME280;72320;50.082;20.000;2023-12-22T09:36:14;96415.70;;;3.07;100.00
21086;BME280;72320;50.082;20.000;2023-12-22T09:38:40;96422.43;;;3.03;100.00
21086;BME280;72320;50.082;20.000;2023-12-22T09:41:07;96418.72;;;3.12;100.00
21086;BME280;72320;50.082;20.000;2023-12-22T09:43:35;96421.90;;;3.28;100.00
21086;BME280;72320;50.082;20.000;2023-12-22T09:46:03;96407.02;;;3.25;100.00
21086;BME280;72320;50.082;20.000;2023-12-22T09:48:33;96403.64;;;3.31;100.00
21086;BME280;72320;50.082;20.000;2023-12-22T09:51:02;96401.94;;;3.35;100.00
21086;BME280;72320;50.082;20.000;2023-12-22T09:53:28;96397.77;;;3.37;100.00
21086;BME280;72320;50.082;20.000;2023-12-22T09:55:59;96388.30;;;3.35;100.00
21086;BME280;72320;50.082;20.000;2023-12-22T09:58:25;96379.21;;;3.43;100.00
21086;BME280;72320;50.082;20.000;2023-12-22T10:00:53;96370.42;;;3.48;100.00
21086;BME280;72320;50.082;20.000;2023-12-22T10:03:24;96365.52;;;3.58;100.00
21086;BME280;72320;50.082;20.000;2023-12-22T10:05:52;96365.83;;;3.65;100.00
21086;BME280;72320;50.082;20.000;2023-12-22T10:08:19;96372.76;;;3.81;100.00
21086;BME280;72320;50.082;20.000;2023-12-22T10:10:47;96368.00;;;3.82;100.00
21086;BME280;72320;50.082;20.000;2023-12-22T10:13:13;96359.77;;;3.84;100.00
21086;BME280;72320;50.082;20.000;2023-12-22T10:15:40;96365.67;;;3.77;100.00
21086;BME280;72320;50.082;20.000;2023-12-22T10:18:09;96385.26;;;3.71;100.00
21086;BME280;72320;50.082;20.000;2023-12-22T10:20:36;96377.15;;;3.65;100.00
21086;BME280;72320;50.082;20.000;2023-12-22T10:23:02;96372.58;;;3.71;100.00
21086;BME280;72320;50.082;20.000;2023-12-22T10:25:29;96371.64;;;3.78;100.00
21086;BME280;72320;50.082;20.000;2023-12-22T10:27:56;96374.54;;;3.85;100.00
21086;BME280;72320;50.082;20.000;2023-12-22T10:30:22;96377.92;;;3.92;100.00
21086;BME280;72320;50.082;20.000;2023-12-22T10:32:51;96377.08;;;3.94;100.00
21086;BME280;72320;50.082;20.000;2023-12-22T10:35:23;96375.95;;;3.89;100.00
21086;BME280;72320;50.082;20.000;2023-12-22T10:37:49;96370.50;;;3.75;100.00
21086;BME280;72320;50.082;20.000;2023-12-22T10:40:19;96364.23;;;3.77;100.00
21086;BME280;72320;50.082;20.000;2023-12-22T10:42:45;96365.70;;;3.84;100.00
21086;BME280;72320;50.082;20.000;2023-12-22T10:45:11;96381.12;;;4.12;100.00
21086;BME280;72320;50.082;20.000;2023-12-22T10:47:38;96383.02;;;4.40;100.00
21086;BME280;72320;50.082;20.000;2023-12-22T10:50:06;96367.79;;;4.47;100.00
21086;BME280;72320;50.082;20.000;2023-12-22T10:52:56;96373.80;;;4.52;100.00
21086;BME280;72320;50.082;20.000;2023-12-22T10:55:40;96372.59;;;4.39;100.00
21086;BME280;72320;50.082;20.000;2023-12-22T10:58:23;96355.22;;;4.29;100.00
21086;BME280;72320;50.082;20.000;2023-12-22T11:00:51;96357.01;;;4.41;100.00
21086;BME280;72320;50.082;20.000;2023-12-22T11:03:23;96355.98;;;4.62;100.00
21086;BME280;72320;50.082;20.000;2023-12-22T11:05:54;96347.52;;;4.66;100.00
21086;BME280;72320;50.082;20.000;2023-12-22T11:08:23;96348.46;;;4.73;100.00
21086;BME280;72320;50.082;20.000;2023-12-22T11:10:58;96352.84;;;4.79;100.00
21086;BME280;72320;50.082;20.000;2023-12-22T11:13:28;96340.70;;;4.80;100.00
21086;BME280;72320;50.082;20.000;2023-12-22T11:15:56;96340.84;;;4.74;100.00
21086;BME280;72320;50.082;20.000;2023-12-22T11:18:22;96334.66;;;4.80;100.00
21086;BME280;72320;50.082;20.000;2023-12-22T11:20:50;96330.42;;;4.65;100.00
21086;BME280;72320;50.082;20.000;2023-12-22T11:23:17;96332.00;;;4.61;100.00
21086;BME280;72320;50.082;20.000;2023-12-22T11:25:48;96316.41;;;4.61;100.00
21086;BME280;72320;50.082;20.000;2023-12-22T11:28:18;96318.13;;;4.45;100.00
21086;BME280;72320;50.082;20.000;2023-12-22T11:30:46;96340.05;;;4.34;100.00
21086;BME280;72320;50.082;20.000;2023-12-22T11:33:13;96356.13;;;4.23;100.00
21086;BME280;72320;50.082;20.000;2023-12-22T11:35:41;96357.48;;;4.22;100.00
21086;BME280;72320;50.082;20.000;2023-12-22T11:38:09;96364.17;;;4.07;100.00
21086;BME280;72320;50.082;20.000;2023-12-22T11:40:36;96367.19;;;3.87;100.00
21086;BME280;72320;50.082;20.000;2023-12-22T11:43:03;96369.34;;;3.72;100.00
21086;BME280;72320;50.082;20.000;2023-12-22T11:45:33;96365.40;;;3.59;100.00
21086;BME280;72320;50.082;20.000;2023-12-22T11:48:10;96366.77;;;3.51;100.00
21086;BME280;72320;50.082;20.000;2023-12-22T11:50:37;96373.81;;;3.45;100.00
21086;BME280;72320;50.082;20.000;2023-12-22T11:53:20;96375.70;;;3.43;100.00
21086;BME280;72320;50.082;20.000;2023-12-22T11:56:08;96371.13;;;3.27;100.00
21086;BME280;72320;50.082;20.000;2023-12-22T11:58:41;96359.06;;;3.13;100.00
21086;BME280;72320;50.082;20.000;2023-12-22T12:01:13;96356.55;;;3.10;100.00
21086;BME280;72320;50.082;20.000;2023-12-22T12:03:50;96341.00;;;3.14;100.00
21086;BME280;72320;50.082;20.000;2023-12-22T12:08:59;96351.08;;;3.39;100.00
21086;BME280;72320;50.082;20.000;2023-12-22T12:14:25;96370.62;;;3.23;100.00
21086;BME280;72320;50.082;20.000;2023-12-22T12:17:08;96366.87;;;3.24;100.00
21086;BME280;72320;50.082;20.000;2023-12-22T12:19:37;96360.27;;;3.38;100.00
21086;BME280;72320;50.082;20.000;2023-12-22T12:22:04;96354.88;;;3.50;100.00
21086;BME280;72320;50.082;20.000;2023-12-22T12:24:31;96348.95;;;3.51;100.00
21086;BME280;72320;50.082;20.000;2023-12-22T12:26:57;96347.29;;;3.61;100.00
21086;BME280;72320;50.082;20.000;2023-12-22T12:29:23;96336.82;;;3.50;100.00
21086;BME280;72320;50.082;20.000;2023-12-22T12:31:53;96348.76;;;3.40;100.00
21086;BME280;72320;50.082;20.000;2023-12-22T12:34:20;96347.68;;;3.40;100.00
21086;BME280;72320;50.082;20.000;2023-12-22T12:36:48;96346.99;;;3.26;100.00
21086;BME280;72320;50.082;20.000;2023-12-22T12:39:15;96339.88;;;3.27;100.00
21086;BME280;72320;50.082;20.000;2023-12-22T12:41:43;96340.81;;;3.22;100.00
21086;BME280;72320;50.082;20.000;2023-12-22T12:44:10;96347.30;;;3.22;100.00
21086;BME280;72320;50.082;20.000;2023-12-22T12:46:38;96347.46;;;3.26;100.00
21086;BME280;72320;50.082;20.000;2023-12-22T12:49:09;96345.90;;;3.30;100.00
21086;BME280;72320;50.082;20.000;2023-12-22T12:51:43;96337.37;;;3.40;100.00
21086;BME280;72320;50.082;20.000;2023-12-22T12:54:10;96328.91;;;3.39;100.00
21086;BME280;72320;50.082;20.000;2023-12-22T12:56:42;96339.88;;;3.35;100.00